GJAKE EGCB-EGCB
Flight info
| Callsign | GJAKE |
|---|---|
| Flight time | 0h 2m |
| Altitude | 3000 |
| Route | MIRSI |
| Aircraft | C172/L-SFG/C |
Departure
| Time | 2026-04-18 16:07 |
|---|---|
| Airport | Manchester Barton Aerodrome (EGCB) |
Arrival
| Time | 2026-04-18 16:10 |
|---|---|
| Airport | Manchester Barton Aerodrome (EGCB) |
| Time | Latitude | Longitude | Altitude | Speed | Heading |
|---|---|---|---|---|---|
| 2026-04-18 16:01 | 53.47117 | -2.38658 | 76 ft | 0 kts | 356° |
| 2026-04-18 16:02 | 53.47124 | -2.38590 | 76 ft | 14 kts | 104° |
| 2026-04-18 16:02 | 53.47090 | -2.38521 | 76 ft | 7 kts | 8° |
| 2026-04-18 16:02 | 53.47095 | -2.38520 | 76 ft | 1 kts | 4° |
| 2026-04-18 16:02 | 53.47133 | -2.38485 | 79 ft | 0 kts | 27° |
| 2026-04-18 16:03 | 53.47174 | -2.38541 | 80 ft | 9 kts | 321° |
| 2026-04-18 16:03 | 53.47173 | -2.38729 | 74 ft | 33 kts | 274° |
| 2026-04-18 16:03 | 53.47155 | -2.39019 | 74 ft | 20 kts | 271° |
| 2026-04-18 16:04 | 53.47129 | -2.39303 | 70 ft | 19 kts | 209° |
| 2026-04-18 16:04 | 53.47112 | -2.39115 | 72 ft | 39 kts | 91° |
| 2026-04-18 16:04 | 53.47101 | -2.38674 | 63 ft | 33 kts | 106° |
| 2026-04-18 16:04 | 53.47087 | -2.38551 | 68 ft | 0 kts | 78° |
| 2026-04-18 16:05 | 53.47089 | -2.38540 | 76 ft | 7 kts | 76° |
| 2026-04-18 16:06 | 53.47090 | -2.38499 | 75 ft | 0 kts | 94° |
| 2026-04-18 16:06 | 53.47090 | -2.38491 | 75 ft | 9 kts | 92° |
| 2026-04-18 16:06 | 53.47211 | -2.38691 | 78 ft | 48 kts | 284° |
| 2026-04-18 16:06 | 53.47171 | -2.39275 | 68 ft | 68 kts | 267° |
| 2026-04-18 16:07 | 53.47111 | -2.40092 | 339 ft | 64 kts | 266° |
| 2026-04-18 16:07 | 53.47253 | -2.40780 | 465 ft | 75 kts | 342° |
| 2026-04-18 16:07 | 53.47781 | -2.40242 | 510 ft | 104 kts | 50° |
| 2026-04-18 16:07 | 53.48098 | -2.39182 | 789 ft | 69 kts | 36° |
| 2026-04-18 16:08 | 53.48321 | -2.38248 | 971 ft | 88 kts | 73° |
| 2026-04-18 16:08 | 53.48439 | -2.37336 | 1308 ft | 73 kts | 70° |
| 2026-04-18 16:08 | 53.48595 | -2.36350 | 1218 ft | 116 kts | 73° |
| 2026-04-18 16:08 | 53.48513 | -2.34973 | 1013 ft | 106 kts | 140° |
| 2026-04-18 16:09 | 53.47920 | -2.34700 | 840 ft | 80 kts | 215° |
| 2026-04-18 16:09 | 53.47581 | -2.35288 | 598 ft | 80 kts | 250° |
| 2026-04-18 16:09 | 53.47372 | -2.36164 | 435 ft | 79 kts | 261° |
| 2026-04-18 16:09 | 53.47297 | -2.37016 | 330 ft | 63 kts | 270° |
| 2026-04-18 16:10 | 53.47256 | -2.37692 | 203 ft | 53 kts | 275° |
| 2026-04-18 16:10 | 53.47241 | -2.38268 | 81 ft | 36 kts | 288° |
| 2026-04-18 16:10 | 53.47117 | -2.38658 | 70 ft | 0 kts | 356° |
| 2026-04-18 16:12 | 53.47092 | -2.38583 | 75 ft | 25 kts | 133° |
| 2026-04-18 16:12 | 53.47091 | -2.38394 | 74 ft | 16 kts | 347° |
| 2026-04-18 16:12 | 53.47208 | -2.38612 | 77 ft | 36 kts | 280° |
| 2026-04-18 16:12 | 53.47165 | -2.39142 | 80 ft | 65 kts | 265° |
| 2026-04-18 16:13 | 53.47086 | -2.39804 | 145 ft | 62 kts | 279° |
| 2026-04-18 16:13 | 53.47367 | -2.39927 | 314 ft | 81 kts | 71° |
| 2026-04-18 16:13 | 53.47009 | -2.39651 | 389 ft | 65 kts | 255° |
| 2026-04-18 16:13 | 53.47279 | -2.40182 | 378 ft | 87 kts | 1° |
| 2026-04-18 16:14 | 53.47738 | -2.39486 | 499 ft | 109 kts | 73° |
| 2026-04-18 16:14 | 53.47445 | -2.38293 | 677 ft | 121 kts | 147° |
| 2026-04-18 16:14 | 53.46671 | -2.38188 | 848 ft | 107 kts | 223° |
| 2026-04-18 16:14 | 53.46454 | -2.39118 | 1065 ft | 86 kts | 296° |
| 2026-04-18 16:15 | 53.47446 | -2.38454 | 1453 ft | 126 kts | 78° |
| 2026-04-18 16:15 | 53.47086 | -2.37122 | 1614 ft | 130 kts | 148° |
| 2026-04-18 16:15 | 53.46278 | -2.36970 | 1790 ft | 111 kts | 219° |
| 2026-04-18 16:16 | 53.45738 | -2.37774 | 1999 ft | 103 kts | 235° |
| 2026-04-18 16:16 | 53.45725 | -2.38768 | 2125 ft | 94 kts | 301° |
| 2026-04-18 16:16 | 53.46059 | -2.39660 | 2331 ft | 94 kts | 329° |
| 2026-04-18 16:16 | 53.46704 | -2.39344 | 2518 ft | 115 kts | 41° |
| 2026-04-18 16:17 | 53.46803 | -2.37987 | 2691 ft | 129 kts | 113° |
| 2026-04-18 16:17 | 53.46135 | -2.37128 | 2855 ft | 120 kts | 183° |
| 2026-04-18 16:17 | 53.45497 | -2.37660 | 3015 ft | 96 kts | 256° |
| 2026-04-18 16:17 | 53.45662 | -2.38555 | 3186 ft | 88 kts | 328° |
| 2026-04-18 16:18 | 53.46276 | -2.38269 | 3352 ft | 112 kts | 41° |
| 2026-04-18 16:18 | 53.46364 | -2.36901 | 3504 ft | 131 kts | 112° |
| 2026-04-18 16:18 | 53.45677 | -2.36033 | 3659 ft | 122 kts | 184° |
| 2026-04-18 16:18 | 53.45007 | -2.36520 | 3827 ft | 102 kts | 238° |
| 2026-04-18 16:19 | 53.44898 | -2.37492 | 3985 ft | 86 kts | 306° |
| 2026-04-18 16:19 | 53.45245 | -2.37799 | 4104 ft | 89 kts | 339° |
| 2026-04-18 16:19 | 53.45789 | -2.38252 | 4257 ft | 89 kts | 334° |
| 2026-04-18 16:19 | 53.46379 | -2.38561 | 4416 ft | 89 kts | 334° |
| 2026-04-18 16:20 | 53.46970 | -2.38887 | 4561 ft | 85 kts | 335° |
| 2026-04-18 16:20 | 53.47365 | -2.39139 | 4287 ft | 7 kts | 62° |
| 2026-04-18 16:20 | 53.46556 | -2.38293 | 2028 ft | 180 kts | 151° |
| 2026-04-18 16:20 | 53.45813 | -2.38656 | 429 ft | 148 kts | 252° |
| 2026-04-18 16:21 | 53.45861 | -2.39670 | 917 ft | 66 kts | 257° |